Time;durP1;ratioP1;P1;durP2;ratioP2;P2;SDS_P1;SDS_P2;PMS_P1;PMS_P2;Temp;Humidity;BMP_temperature;BMP_pressure;BME280_temperature;BME280_humidity;BME280_pressure;Samples;Min_cycle;Max_cycle;Signal;HPM_P1;HPM_P2
2023/03/23 00:01:56;;;;;;;2.10;0.60;;;;;;;13.08;83.23;99583.84;5185644;28;20029;-76
2023/03/23 00:04:29;;;;;;;1.33;0.60;;;;;;;13.11;84.04;99588.91;5204055;28;20513;-77
2023/03/23 00:07:02;;;;;;;1.80;0.63;;;;;;;13.00;83.84;99581.69;5194631;28;20035;-76
2023/03/23 00:09:34;;;;;;;2.88;0.95;;;;;;;12.90;83.83;99572.66;5208375;28;20368;-76
2023/03/23 00:12:05;;;;;;;3.60;1.13;;;;;;;13.03;83.67;99565.75;5202029;28;20025;-76
2023/03/23 00:14:41;;;;;;;2.63;0.70;;;;;;;13.09;83.43;99575.03;5228597;22;20471;-70
2023/03/23 00:17:14;;;;;;;2.47;0.90;;;;;;;12.97;83.23;99575.78;5223090;28;20033;-68
2023/03/23 00:19:47;;;;;;;3.63;0.88;;;;;;;13.03;83.39;99567.56;5224928;28;20033;-69
2023/03/23 00:22:19;;;;;;;1.85;0.82;;;;;;;13.10;82.13;99566.22;5226173;28;20387;-70
2023/03/23 00:24:50;;;;;;;8.95;1.60;;;;;;;13.10;82.64;99576.72;5231856;28;20086;-69
2023/03/23 00:27:24;;;;;;;1.75;0.80;;;;;;;13.10;83.03;99574.09;5228767;28;20021;-70
2023/03/23 00:29:55;;;;;;;3.15;0.95;;;;;;;13.09;82.50;99581.09;5205504;28;20083;-69
2023/03/23 00:32:29;;;;;;;1.23;0.60;;;;;;;13.17;83.18;99562.28;5223370;28;20048;-69
2023/03/23 00:35:00;;;;;;;1.23;0.60;;;;;;;13.12;83.32;99564.34;5231934;28;20489;-70
2023/03/23 00:37:30;;;;;;;1.77;0.93;;;;;;;13.04;83.77;99566.63;5228906;28;20044;-70
2023/03/23 00:40:05;;;;;;;2.50;0.70;;;;;;;13.08;83.72;99562.84;5228372;28;20017;-70
2023/03/23 00:42:37;;;;;;;2.22;0.43;;;;;;;13.13;83.09;99550.28;5217034;28;20033;-69
2023/03/23 00:45:10;;;;;;;2.72;0.80;;;;;;;13.16;83.57;99555.34;5219338;28;20045;-70
2023/03/23 00:47:46;;;;;;;1.50;0.60;;;;;;;13.10;83.69;99546.06;5224800;28;20032;-68
2023/03/23 00:50:17;;;;;;;2.17;0.85;;;;;;;13.06;84.49;99549.00;5204750;28;20296;-70
2023/03/23 00:52:52;;;;;;;1.58;0.60;;;;;;;13.04;84.81;99550.88;5227758;28;20047;-69
2023/03/23 00:55:24;;;;;;;2.10;0.63;;;;;;;13.12;85.32;99544.22;5228854;28;20113;-69
2023/03/23 00:57:54;;;;;;;1.63;0.60;;;;;;;13.16;85.98;99550.94;5211823;28;20040;-69
2023/03/23 01:00:24;;;;;;;2.05;0.75;;;;;;;12.95;86.75;99553.22;5222152;28;20413;-71
2023/03/23 01:02:55;;;;;;;3.22;0.68;;;;;;;12.93;86.53;99555.94;5219064;28;20294;-70
2023/03/23 01:05:31;;;;;;;1.40;0.60;;;;;;;12.96;86.48;99547.88;5226979;28;20104;-69
2023/03/23 01:08:02;;;;;;;2.55;0.70;;;;;;;12.90;87.23;99545.59;5223531;28;20117;-70
2023/03/23 01:10:33;;;;;;;2.38;0.60;;;;;;;13.10;86.08;99540.81;5222621;28;20561;-70
2023/03/23 01:13:04;;;;;;;1.20;0.60;;;;;;;13.04;86.74;99548.25;5224726;28;20036;-70
2023/03/23 01:15:35;;;;;;;1.95;0.60;;;;;;;13.01;87.21;99546.66;5216575;28;20479;-69
2023/03/23 01:18:06;;;;;;;1.02;0.47;;;;;;;12.93;87.36;99532.31;5213522;28;20091;-68
2023/03/23 01:20:37;;;;;;;1.90;1.10;;;;;;;12.91;88.54;99535.00;5223351;28;20043;-70
2023/03/23 01:23:08;;;;;;;1.98;0.68;;;;;;;13.02;86.97;99534.38;5224695;28;20094;-70
2023/03/23 01:25:38;;;;;;;2.63;0.70;;;;;;;12.93;87.77;99532.31;5225529;28;20258;-72
2023/03/23 01:28:10;;;;;;;1.05;0.70;;;;;;;12.98;89.06;99531.09;5221315;28;20025;-71
2023/03/23 01:30:40;;;;;;;1.85;0.60;;;;;;;12.95;91.26;99530.44;5226911;28;20410;-68
2023/03/23 01:33:11;;;;;;;1.52;0.50;;;;;;;12.91;92.50;99524.50;5227955;28;20037;-68
2023/03/23 01:35:41;;;;;;;1.27;0.65;;;;;;;12.83;94.49;99520.66;5227559;28;20471;-69
2023/03/23 01:38:11;;;;;;;1.60;0.63;;;;;;;12.74;94.17;99525.63;5226551;28;20970;-69
2023/03/23 01:40:43;;;;;;;1.75;0.70;;;;;;;12.78;93.63;99522.75;5221728;28;20037;-70
2023/03/23 01:43:15;;;;;;;3.78;0.90;;;;;;;12.66;94.43;99522.66;5222878;28;20025;-69
2023/03/23 01:45:45;;;;;;;3.38;0.65;;;;;;;12.69;94.41;99518.06;5220455;28;20032;-69
2023/03/23 01:48:27;;;;;;;3.67;0.95;;;;;;;12.65;94.67;99515.72;5223753;28;20505;-69
2023/03/23 01:51:01;;;;;;;3.42;1.08;;;;;;;12.64;94.16;99522.72;5228345;28;20107;-69
2023/03/23 01:53:44;;;;;;;2.45;0.90;;;;;;;12.73;94.57;99522.19;5224020;28;20595;-69
2023/03/23 01:56:20;;;;;;;6.70;1.20;;;;;;;12.68;95.21;99515.53;5220275;28;20128;-69
2023/03/23 01:58:52;;;;;;;1.70;0.88;;;;;;;12.69;96.37;99507.59;5223598;28;20028;-69
2023/03/23 02:01:27;;;;;;;3.72;1.15;;;;;;;12.66;96.83;99502.50;5226394;28;20033;-69
2023/03/23 02:03:57;;;;;;;4.70;1.10;;;;;;;12.72;97.04;99496.06;5221784;28;20376;-70
2023/03/23 02:06:28;;;;;;;1.90;0.80;;;;;;;12.62;97.13;99498.41;5222316;28;20032;-68
2023/03/23 02:08:58;;;;;;;3.13;0.90;;;;;;;12.65;96.91;99505.25;5226273;28;20021;-69
2023/03/23 02:11:29;;;;;;;1.88;0.77;;;;;;;12.63;96.89;99497.47;5229320;28;20542;-69
2023/03/23 02:14:01;;;;;;;1.63;0.70;;;;;;;12.49;97.82;99500.06;5220900;28;20070;-69
2023/03/23 02:16:51;;;;;;;2.70;0.80;;;;;;;12.52;98.04;99491.19;5217311;28;20312;-70
2023/03/23 02:19:32;;;;;;;1.65;0.70;;;;;;;12.44;98.79;99490.81;5226992;28;20444;-70
2023/03/23 02:22:40;;;;;;;2.53;0.70;;;;;;;12.43;99.95;99489.97;5222812;28;20036;-69
2023/03/23 02:25:22;;;;;;;1.63;0.60;;;;;;;12.41;100.00;99494.47;5216801;28;20021;-69
2023/03/23 02:28:09;;;;;;;2.13;0.68;;;;;;;12.37;98.76;99492.09;5223109;28;21325;-70
2023/03/23 02:31:03;;;;;;;4.90;0.60;;;;;;;12.32;98.05;99487.13;5222641;28;20048;-72
2023/03/23 02:33:57;;;;;;;1.67;0.60;;;;;;;12.28;98.36;99484.81;5218152;28;20039;-71
2023/03/23 02:36:54;;;;;;;3.40;0.70;;;;;;;12.39;98.26;99488.47;5216882;28;20033;-72
2023/03/23 02:39:53;;;;;;;1.20;0.73;;;;;;;12.32;97.23;99492.38;5222068;28;20017;-72
2023/03/23 02:42:29;;;;;;;1.50;0.75;;;;;;;12.40;96.07;99484.06;5192183;28;20194;-72
2023/03/23 02:45:03;;;;;;;;;;;;;;;12.42;96.15;99469.09;5220417;28;20108;-72
2023/03/23 02:47:36;;;;;;;2.13;1.10;;;;;;;12.41;96.28;99470.88;5220685;28;19913;-72
2023/03/23 02:50:14;;;;;;;1.48;0.60;;;;;;;12.42;97.05;99466.47;5229039;28;20035;-69
2023/03/23 02:52:48;;;;;;;1.45;0.77;;;;;;;12.43;97.62;99470.78;5208642;28;20072;-69
2023/03/23 02:55:22;;;;;;;2.20;0.80;;;;;;;12.45;97.12;99482.84;5217164;28;20032;-71
2023/03/23 02:57:54;;;;;;;3.83;0.90;;;;;;;12.50;97.54;99475.53;5198962;28;20634;-69
2023/03/23 03:00:24;;;;;;;1.35;0.80;;;;;;;12.47;96.70;99477.53;5218549;28;20032;-71
2023/03/23 03:02:56;;;;;;;1.83;0.95;;;;;;;12.56;97.13;99456.84;5221558;28;20029;-69
2023/03/23 03:05:32;;;;;;;2.78;1.02;;;;;;;12.54;97.25;99460.47;5218798;28;20017;-69
2023/03/23 03:08:28;;;;;;;4.07;1.00;;;;;;;12.59;97.49;99474.13;5210904;28;20450;-70
2023/03/23 03:11:03;;;;;;;2.78;1.00;;;;;;;12.68;96.28;99463.97;5226568;28;20351;-70
2023/03/23 03:13:52;;;;;;;6.00;1.98;;;;;;;12.54;97.79;99461.34;5219410;28;20600;-70
2023/03/23 03:16:22;;;;;;;3.20;1.10;;;;;;;12.56;98.30;99451.59;5218749;28;20025;-70
2023/03/23 03:19:15;;;;;;;3.35;0.98;;;;;;;12.49;99.97;99478.28;5226076;28;20509;-70
2023/03/23 03:21:48;;;;;;;3.13;1.10;;;;;;;12.50;99.96;99490.44;5228098;28;20051;-69
2023/03/23 03:24:20;;;;;;;3.78;1.08;;;;;;;12.54;100.00;99474.44;5225323;28;20176;-69
2023/03/23 03:26:57;;;;;;;1.48;0.90;;;;;;;12.50;100.00;99483.41;5228092;28;20028;-69
2023/03/23 03:29:35;;;;;;;3.55;1.10;;;;;;;12.53;100.00;99485.00;5225663;28;20025;-69
2023/03/23 03:32:08;;;;;;;2.05;1.17;;;;;;;12.46;100.00;99476.66;5220831;28;20016;-69
2023/03/23 03:34:39;;;;;;;2.15;1.00;;;;;;;12.45;100.00;99464.50;5223929;28;20033;-69
2023/03/23 03:37:11;;;;;;;2.33;0.88;;;;;;;12.41;100.00;99472.63;5231032;28;20172;-70
2023/03/23 03:39:41;;;;;;;1.98;1.00;;;;;;;12.37;100.00;99474.63;5231406;28;20032;-70
2023/03/23 03:42:12;;;;;;;3.85;1.10;;;;;;;12.35;100.00;99480.88;5232276;28;20029;-69
2023/03/23 03:44:42;;;;;;;1.38;0.88;;;;;;;12.33;100.00;99482.75;5224955;28;20448;-68
2023/03/23 03:47:12;;;;;;;3.47;0.90;;;;;;;12.23;100.00;99482.47;5226503;28;20028;-68
2023/03/23 03:49:43;;;;;;;2.38;0.90;;;;;;;12.18;100.00;99473.19;5221489;28;20585;-68
2023/03/23 03:52:14;;;;;;;2.30;0.90;;;;;;;12.10;100.00;99464.97;5211887;28;20098;-68
2023/03/23 03:54:44;;;;;;;3.20;1.17;;;;;;;12.20;100.00;99464.31;5227454;28;20504;-69
2023/03/23 03:57:17;;;;;;;1.90;0.80;;;;;;;12.19;100.00;99464.41;5222593;28;20112;-69
2023/03/23 03:59:47;;;;;;;3.58;1.30;;;;;;;12.10;100.00;99463.16;5224051;28;20056;-70
2023/03/23 04:02:19;;;;;;;1.77;0.98;;;;;;;12.19;100.00;99475.72;5229243;28;20032;-69
2023/03/23 04:04:52;;;;;;;2.63;0.80;;;;;;;12.10;100.00;99468.41;5225361;28;20033;-69
2023/03/23 04:07:26;;;;;;;3.33;0.82;;;;;;;12.00;100.00;99469.91;5232009;28;20021;-70
2023/03/23 04:09:56;;;;;;;2.28;1.00;;;;;;;12.07;100.00;99472.97;5230598;28;20355;-70
2023/03/23 04:12:26;;;;;;;2.00;0.70;;;;;;;11.94;100.00;99472.84;5228922;28;20154;-70
2023/03/23 04:14:57;;;;;;;2.00;0.90;;;;;;;11.92;100.00;99485.19;5223279;28;20567;-69
2023/03/23 04:17:28;;;;;;;2.20;0.88;;;;;;;11.83;100.00;99479.66;5225270;28;20128;-70
2023/03/23 04:19:59;;;;;;;3.13;1.00;;;;;;;11.90;100.00;99473.13;5231204;28;20111;-70
2023/03/23 04:22:30;;;;;;;2.10;0.80;;;;;;;11.89;100.00;99476.66;5224972;28;20559;-70
2023/03/23 04:25:04;;;;;;;3.70;0.90;;;;;;;11.83;100.00;99472.66;5226159;28;20040;-70
2023/03/23 04:27:34;;;;;;;2.72;0.80;;;;;;;11.81;100.00;99468.44;5216037;28;20098;-70
2023/03/23 04:30:06;;;;;;;2.80;0.80;;;;;;;11.75;100.00;99455.72;5225594;28;20471;-72
2023/03/23 04:32:41;;;;;;;2.42;1.10;;;;;;;11.76;100.00;99452.97;5225645;28;20036;-70
2023/03/23 04:35:13;;;;;;;2.92;0.90;;;;;;;11.70;100.00;99470.81;5225073;28;20031;-70
2023/03/23 04:37:44;;;;;;;2.28;0.93;;;;;;;11.65;100.00;99473.69;5230171;28;20044;-69
2023/03/23 04:40:15;;;;;;;2.33;1.10;;;;;;;11.59;100.00;99476.66;5226980;28;20033;-69
2023/03/23 04:42:47;;;;;;;2.50;0.90;;;;;;;11.47;100.00;99474.72;5228191;28;20060;-70
2023/03/23 04:45:22;;;;;;;1.48;0.80;;;;;;;11.52;100.00;99464.00;5222168;28;20029;-70
2023/03/23 04:47:52;;;;;;;;;;;;;;;11.60;100.00;99448.75;5225612;28;20368;-72
2023/03/23 04:50:27;;;;;;;1.40;1.05;;;;;;;11.49;100.00;99462.41;5226292;28;20222;-70
2023/03/23 04:52:58;;;;;;;1.98;1.02;;;;;;;11.53;100.00;99458.69;5226998;28;20101;-69
2023/03/23 04:55:28;;;;;;;2.22;0.95;;;;;;;11.39;100.00;99471.69;5223239;28;20503;-72
2023/03/23 04:58:01;;;;;;;1.60;0.90;;;;;;;11.48;100.00;99468.53;5222269;28;20043;-70
2023/03/23 05:00:33;;;;;;;3.00;1.10;;;;;;;11.41;100.00;99463.78;5225201;28;20108;-69
2023/03/23 05:03:03;;;;;;;2.45;0.90;;;;;;;11.31;100.00;99460.81;5203472;28;20407;-70
2023/03/23 05:05:34;;;;;;;2.75;0.80;;;;;;;11.35;100.00;99464.97;5224773;28;20040;-72
2023/03/23 05:08:05;;;;;;;2.00;0.90;;;;;;;11.37;100.00;99457.00;5229460;28;20478;-72
2023/03/23 05:10:35;;;;;;;3.60;1.00;;;;;;;11.51;100.00;99444.84;5228219;28;20035;-70
2023/03/23 05:13:05;;;;;;;5.28;1.30;;;;;;;11.44;100.00;99445.28;5204330;28;20443;-69
2023/03/23 05:15:36;;;;;;;1.75;0.88;;;;;;;11.44;100.00;99433.03;5220330;28;20261;-69
2023/03/23 05:18:06;;;;;;;2.78;0.95;;;;;;;11.37;100.00;99405.53;5222506;28;20074;-70
2023/03/23 05:20:37;;;;;;;1.50;0.85;;;;;;;11.37;100.00;99404.69;5227439;28;20033;-69
2023/03/23 05:23:09;;;;;;;1.88;0.95;;;;;;;11.34;100.00;99390.03;5226090;28;20115;-70
2023/03/23 05:25:40;;;;;;;3.03;1.30;;;;;;;11.36;100.00;99393.41;5223523;28;20067;-69
2023/03/23 05:28:11;;;;;;;1.92;1.00;;;;;;;11.30;100.00;99398.97;5226194;28;20466;-70
2023/03/23 05:30:43;;;;;;;1.80;0.88;;;;;;;11.32;100.00;99401.50;5228338;28;20386;-69
2023/03/23 05:33:14;;;;;;;2.42;0.88;;;;;;;11.35;100.00;99410.03;5227729;28;20070;-68
2023/03/23 05:35:47;;;;;;;1.70;0.90;;;;;;;11.36;100.00;99414.31;5225653;28;20036;-68
2023/03/23 05:38:17;;;;;;;1.90;0.88;;;;;;;11.36;100.00;99408.25;5229579;28;20503;-71
2023/03/23 05:40:48;;;;;;;2.35;1.00;;;;;;;11.33;100.00;99419.75;5211633;28;20072;-71
2023/03/23 05:43:19;;;;;;;4.32;1.10;;;;;;;11.41;100.00;99427.97;5228323;28;20025;-71
2023/03/23 05:45:49;;;;;;;1.90;0.77;;;;;;;11.43;100.00;99431.34;5222186;28;20037;-70
2023/03/23 05:48:19;;;;;;;1.63;0.80;;;;;;;11.44;100.00;99435.66;5229550;28;20474;-69
2023/03/23 05:50:50;;;;;;;1.20;0.68;;;;;;;11.43;100.00;99436.56;5229686;28;20071;-70
2023/03/23 05:53:20;;;;;;;3.25;0.82;;;;;;;11.48;100.00;99437.16;5224676;28;20090;-70
2023/03/23 05:55:51;;;;;;;2.22;0.85;;;;;;;11.39;100.00;99437.69;5224789;28;20276;-70
2023/03/23 05:58:22;;;;;;;2.08;0.70;;;;;;;11.49;100.00;99427.53;5218709;28;20291;-69
2023/03/23 06:00:53;;;;;;;1.88;0.73;;;;;;;11.54;100.00;99438.56;5223932;28;20144;-70
2023/03/23 06:03:24;;;;;;;2.38;0.80;;;;;;;11.65;100.00;99421.34;5226575;28;20494;-69
2023/03/23 06:05:54;;;;;;;1.75;0.68;;;;;;;11.53;100.00;99422.06;5224195;28;20036;-69
2023/03/23 06:08:24;;;;;;;3.70;0.80;;;;;;;11.49;100.00;99433.63;5225681;28;20021;-70
2023/03/23 06:10:55;;;;;;;1.52;0.50;;;;;;;11.56;100.00;99423.66;5227699;28;20580;-69
2023/03/23 06:13:25;;;;;;;2.13;0.80;;;;;;;11.60;100.00;99428.63;5218916;28;20193;-69
2023/03/23 06:15:59;;;;;;;1.30;0.77;;;;;;;11.56;100.00;99427.13;5323668;22;20125;-72
2023/03/23 06:18:31;;;;;;;1.55;0.70;;;;;;;11.61;100.00;99443.41;5197912;28;20476;-72
2023/03/23 06:21:05;;;;;;;3.35;0.80;;;;;;;11.68;100.00;99436.03;5204236;28;20147;-73
2023/03/23 06:23:37;;;;;;;1.70;0.90;;;;;;;11.56;100.00;99437.59;5198116;28;20109;-73
2023/03/23 06:26:08;;;;;;;2.47;0.70;;;;;;;11.69;100.00;99440.34;5185708;28;20364;-72
2023/03/23 06:28:38;;;;;;;1.20;0.57;;;;;;;11.78;100.00;99442.44;5206320;28;20029;-72
2023/03/23 06:31:09;;;;;;;1.20;0.60;;;;;;;11.77;100.00;99440.75;5207913;28;20025;-73
2023/03/23 06:33:40;;;;;;;1.15;0.50;;;;;;;11.91;100.00;99448.63;5201202;28;20491;-72
2023/03/23 06:36:11;;;;;;;1.23;0.50;;;;;;;12.00;100.00;99446.34;5202377;28;20479;-73
2023/03/23 06:38:42;;;;;;;0.90;0.55;;;;;;;12.02;100.00;99447.06;5206442;28;20030;-73
2023/03/23 06:41:13;;;;;;;1.38;0.70;;;;;;;12.15;100.00;99442.78;5210375;28;20055;-72
2023/03/23 06:43:45;;;;;;;2.15;0.70;;;;;;;12.15;100.00;99444.56;5200690;28;20034;-75
2023/03/23 06:46:16;;;;;;;0.90;0.65;;;;;;;12.18;100.00;99445.22;5181234;28;20434;-72
2023/03/23 06:48:49;;;;;;;1.05;0.52;;;;;;;12.14;100.00;99454.19;5190396;28;20034;-71
2023/03/23 06:51:20;;;;;;;2.28;0.70;;;;;;;12.15;100.00;99453.25;5206694;28;20100;-73
2023/03/23 06:53:50;;;;;;;1.33;0.75;;;;;;;12.10;100.00;99441.38;5184095;28;20148;-74
2023/03/23 06:56:21;;;;;;;1.58;0.70;;;;;;;12.09;100.00;99442.31;5207644;28;20025;-75
2023/03/23 06:58:51;;;;;;;0.80;0.60;;;;;;;12.23;100.00;99435.31;5201451;28;20038;-74
2023/03/23 07:01:21;;;;;;;2.80;0.68;;;;;;;12.19;100.00;99440.81;5212247;28;20035;-73
2023/03/23 07:03:52;;;;;;;1.67;0.68;;;;;;;12.25;100.00;99445.69;5202717;28;20104;-73
2023/03/23 07:06:24;;;;;;;1.10;0.63;;;;;;;12.18;100.00;99450.47;5211127;28;20412;-75
2023/03/23 07:08:55;;;;;;;0.52;0.40;;;;;;;12.16;100.00;99444.44;5213305;28;20471;-73
2023/03/23 07:11:25;;;;;;;1.40;0.60;;;;;;;12.23;100.00;99451.03;5211846;28;20041;-73
2023/03/23 07:13:56;;;;;;;3.35;0.98;;;;;;;12.35;100.00;99446.81;5201877;28;20036;-74
2023/03/23 07:16:26;;;;;;;3.25;0.50;;;;;;;12.31;100.00;99438.28;5201398;28;20087;-74
2023/03/23 07:18:56;;;;;;;1.25;0.70;;;;;;;12.50;100.00;99448.50;5205263;28;20061;-74
2023/03/23 07:21:27;;;;;;;3.10;0.70;;;;;;;12.76;100.00;99461.69;5213055;28;20044;-72
2023/03/23 07:23:57;;;;;;;1.10;0.60;;;;;;;13.10;100.00;99456.06;5183547;28;20052;-73
2023/03/23 07:26:27;;;;;;;2.88;0.70;;;;;;;13.64;97.94;99457.72;5206324;28;20120;-75
2023/03/23 07:28:58;;;;;;;1.35;0.63;;;;;;;14.05;96.28;99455.84;5195805;28;20504;-73
2023/03/23 07:31:28;;;;;;;1.63;0.80;;;;;;;13.72;96.68;99468.59;5210825;28;20033;-73
2023/03/23 07:33:58;;;;;;;2.45;0.90;;;;;;;13.51;98.72;99462.09;5184521;28;20095;-74
2023/03/23 07:36:30;;;;;;;1.90;0.80;;;;;;;13.42;98.13;99468.78;5209969;28;20147;-77
2023/03/23 07:39:00;;;;;;;1.73;0.70;;;;;;;13.08;100.00;99463.19;5186036;28;20033;-73
2023/03/23 07:41:32;;;;;;;2.33;0.80;;;;;;;13.11;100.00;99462.97;5204804;28;20036;-73
2023/03/23 07:44:02;;;;;;;1.85;0.70;;;;;;;13.01;100.00;99460.09;5204047;28;20445;-74
2023/03/23 07:46:32;;;;;;;1.35;0.80;;;;;;;13.05;100.00;99461.56;5201080;28;20045;-74
2023/03/23 07:49:05;;;;;;;1.83;0.80;;;;;;;13.03;100.00;99473.13;5198997;28;20065;-73
2023/03/23 07:51:38;;;;;;;1.85;1.02;;;;;;;13.06;100.00;99460.63;5212872;28;20077;-75
2023/03/23 07:54:08;;;;;;;1.02;0.63;;;;;;;13.18;100.00;99456.38;5203930;28;20063;-75
2023/03/23 07:56:41;;;;;;;2.35;1.00;;;;;;;13.37;100.00;99475.28;5208472;28;20029;-71
2023/03/23 07:59:12;;;;;;;1.85;0.88;;;;;;;13.81;98.53;99466.19;5199676;28;20029;-76
2023/03/23 08:01:42;;;;;;;1.92;0.98;;;;;;;14.33;96.83;99464.41;5208842;28;20557;-72
2023/03/23 08:04:13;;;;;;;1.20;0.70;;;;;;;14.58;94.83;99461.75;5199509;28;20026;-74
2023/03/23 08:06:43;;;;;;;1.17;0.73;;;;;;;14.43;94.09;99457.53;5193012;28;20083;-73
2023/03/23 08:09:13;;;;;;;1.45;0.65;;;;;;;15.44;89.06;99452.00;5203830;28;20017;-73
2023/03/23 08:11:44;;;;;;;1.90;0.73;;;;;;;16.16;85.87;99440.38;5208381;28;20662;-73
2023/03/23 08:14:14;;;;;;;1.75;0.70;;;;;;;16.83;84.79;99437.72;5202012;28;20534;-75
2023/03/23 08:16:44;;;;;;;2.80;0.80;;;;;;;17.48;80.56;99452.59;5204471;28;20033;-74
2023/03/23 08:19:15;;;;;;;1.27;0.70;;;;;;;17.08;79.12;99454.13;5210686;28;20025;-73
2023/03/23 08:21:45;;;;;;;1.77;0.70;;;;;;;16.44;83.94;99454.03;5205199;28;20045;-73
2023/03/23 08:24:16;;;;;;;2.28;0.80;;;;;;;16.42;83.51;99463.81;5200967;28;20025;-75
2023/03/23 08:26:46;;;;;;;2.35;0.80;;;;;;;16.45;84.01;99453.06;5204489;28;20036;-75
2023/03/23 08:29:17;;;;;;;3.50;0.80;;;;;;;16.21;83.70;99448.78;5202363;28;20472;-76
2023/03/23 08:31:48;;;;;;;2.47;0.93;;;;;;;15.99;85.42;99444.31;5210999;28;20112;-72
2023/03/23 08:34:18;;;;;;;2.22;0.95;;;;;;;15.80;86.54;99441.38;5203240;28;20120;-72
2023/03/23 08:36:51;;;;;;;2.00;0.90;;;;;;;16.09;86.17;99434.75;5210996;28;20074;-73
2023/03/23 08:39:22;;;;;;;1.10;0.60;;;;;;;16.56;86.20;99433.75;5211179;28;20100;-75
2023/03/23 08:41:53;;;;;;;3.03;0.85;;;;;;;16.87;82.94;99428.56;5209823;28;20403;-75
2023/03/23 08:44:24;;;;;;;2.30;0.80;;;;;;;16.85;82.64;99435.78;5201558;28;20032;-75
2023/03/23 08:46:56;;;;;;;2.10;1.00;;;;;;;16.42;83.13;99448.00;5202923;28;20036;-74
2023/03/23 08:49:26;;;;;;;2.08;0.80;;;;;;;15.95;83.79;99453.41;5207264;28;20017;-72
2023/03/23 08:51:58;;;;;;;2.00;0.93;;;;;;;15.89;84.55;99448.56;5209601;28;20083;-74
2023/03/23 08:54:30;;;;;;;1.77;0.98;;;;;;;15.41;87.90;99470.66;5203891;28;20091;-74
2023/03/23 08:57:01;;;;;;;2.45;1.00;;;;;;;15.01;88.31;99478.84;5205620;28;20032;-74
2023/03/23 08:59:31;;;;;;;2.50;0.80;;;;;;;15.07;87.75;99475.78;5203888;28;20118;-73
2023/03/23 09:02:01;;;;;;;2.10;0.85;;;;;;;15.02;89.62;99480.53;5202215;28;20033;-74
2023/03/23 09:04:32;;;;;;;1.50;0.80;;;;;;;14.74;89.85;99470.25;5200295;28;20029;-74
2023/03/23 09:07:02;;;;;;;2.03;0.90;;;;;;;14.96;89.83;99478.31;5212632;28;20506;-73
2023/03/23 09:09:34;;;;;;;4.35;1.25;;;;;;;14.83;90.25;99470.44;5203402;28;20104;-76
2023/03/23 09:12:05;;;;;;;1.70;0.95;;;;;;;14.99;89.73;99465.78;5202424;28;20529;-76
2023/03/23 09:14:37;;;;;;;7.57;1.20;;;;;;;14.90;89.25;99474.34;5199414;28;20108;-74
2023/03/23 09:17:08;;;;;;;2.90;1.27;;;;;;;15.08;89.09;99459.03;5201529;28;20045;-73
2023/03/23 09:19:38;;;;;;;3.85;1.33;;;;;;;15.03;88.13;99474.31;5204647;28;20478;-76
2023/03/23 09:22:08;;;;;;;4.40;1.25;;;;;;;15.16;88.38;99462.78;5207273;28;20040;-73
2023/03/23 09:24:38;;;;;;;3.08;1.02;;;;;;;15.34;88.45;99468.56;5199732;28;20112;-73
2023/03/23 09:27:09;;;;;;;3.30;1.10;;;;;;;15.29;87.53;99484.69;5190827;28;20047;-74
2023/03/23 09:29:40;;;;;;;3.65;1.15;;;;;;;15.48;88.47;99477.13;5193070;28;20025;-73
2023/03/23 09:32:13;;;;;;;1.80;0.85;;;;;;;15.49;86.50;99484.09;5203709;28;20451;-75
2023/03/23 09:34:43;;;;;;;6.25;2.25;;;;;;;15.26;87.01;99489.28;5199016;28;20487;-73
2023/03/23 09:37:14;;;;;;;4.93;1.02;;;;;;;15.18;87.61;99484.56;5209353;28;20036;-73
2023/03/23 09:39:44;;;;;;;2.28;1.00;;;;;;;15.39;87.90;99480.44;5209940;28;20108;-72
2023/03/23 09:42:46;;;;;;;3.50;1.10;;;;;;;15.17;87.65;99485.53;5208186;28;20493;-73
2023/03/23 09:45:31;;;;;;;2.90;1.25;;;;;;;15.12;87.55;99492.06;5198750;28;20029;-73
2023/03/23 09:48:18;;;;;;;2.05;0.98;;;;;;;15.14;87.64;99485.75;5205540;28;20799;-75
2023/03/23 09:50:56;;;;;;;3.45;1.08;;;;;;;15.29;86.90;99483.84;5204954;28;20033;-74
2023/03/23 09:53:34;;;;;;;3.08;1.55;;;;;;;15.15;86.49;99484.81;5202548;28;20032;-75
2023/03/23 09:56:13;;;;;;;3.78;1.13;;;;;;;15.20;86.17;99495.84;5198783;28;20025;-75
2023/03/23 09:58:55;;;;;;;5.10;1.35;;;;;;;15.11;86.29;99493.88;5197864;28;20040;-74
2023/03/23 10:01:35;;;;;;;3.47;1.00;;;;;;;15.19;86.55;99503.88;5210564;28;20505;-73
2023/03/23 10:04:26;;;;;;;4.30;0.85;;;;;;;15.25;87.10;99504.28;5176736;28;20039;-72
2023/03/23 10:07:03;;;;;;;2.75;1.00;;;;;;;15.38;86.38;99494.53;5205098;28;20021;-74
2023/03/23 10:09:36;;;;;;;5.03;1.15;;;;;;;15.43;86.39;99502.13;5203611;28;20025;-73
2023/03/23 10:12:16;;;;;;;3.85;1.10;;;;;;;15.40;85.68;99502.34;5206476;28;20029;-73
2023/03/23 10:14:59;;;;;;;3.67;1.27;;;;;;;15.42;85.55;99516.25;5203792;28;20025;-73
2023/03/23 10:17:45;;;;;;;3.00;0.98;;;;;;;15.44;85.27;99504.66;5185772;28;20029;-75
2023/03/23 10:20:40;;;;;;;4.93;1.20;;;;;;;15.44;84.85;99502.03;5185356;28;20553;-74
2023/03/23 10:23:15;;;;;;;5.57;1.23;;;;;;;15.42;83.81;99514.47;5197824;28;20036;-74
2023/03/23 10:26:00;;;;;;;5.68;1.40;;;;;;;15.39;85.35;99517.28;5204755;28;20036;-75
2023/03/23 10:28:41;;;;;;;4.70;1.88;;;;;;;15.35;85.41;99515.84;5208063;28;20487;-74
2023/03/23 10:31:21;;;;;;;5.35;1.38;;;;;;;15.50;84.75;99527.06;5210325;28;20499;-73
2023/03/23 10:33:56;;;;;;;5.18;1.05;;;;;;;15.63;83.66;99515.53;5209099;28;20063;-73
2023/03/23 10:36:37;;;;;;;3.60;1.10;;;;;;;15.57;83.32;99518.59;5203856;28;20025;-74
2023/03/23 10:39:31;;;;;;;2.85;1.08;;;;;;;15.58;83.31;99516.81;5205359;28;20033;-74
2023/03/23 10:42:06;;;;;;;4.18;1.25;;;;;;;15.82;82.54;99515.88;5210635;28;20383;-73
2023/03/23 10:44:37;;;;;;;4.53;0.98;;;;;;;15.88;82.63;99518.03;5206608;28;20170;-76
2023/03/23 10:47:08;;;;;;;3.33;1.00;;;;;;;15.69;82.64;99519.53;5208496;28;20037;-74
2023/03/23 10:49:46;;;;;;;5.35;0.98;;;;;;;16.08;84.65;99527.94;5204035;28;20022;-76
2023/03/23 10:52:34;;;;;;;2.17;0.75;;;;;;;16.13;81.25;99515.28;5204721;28;20111;-74
2023/03/23 10:55:11;;;;;;;3.83;1.00;;;;;;;16.31;81.07;99524.44;5203955;28;20018;-74
2023/03/23 10:57:45;;;;;;;4.93;1.25;;;;;;;16.38;81.73;99517.75;5201983;28;20433;-73
2023/03/23 11:00:26;;;;;;;3.40;1.25;;;;;;;16.35;79.08;99518.00;5206292;28;20091;-74
2023/03/23 11:03:02;;;;;;;3.83;1.13;;;;;;;16.14;79.26;99516.09;5204873;28;20482;-74
2023/03/23 11:05:40;;;;;;;5.70;1.33;;;;;;;16.01;80.05;99528.53;5201727;28;20033;-73
2023/03/23 11:08:14;;;;;;;2.65;1.00;;;;;;;15.97;80.00;99514.72;5188902;28;20113;-73
2023/03/23 11:10:52;;;;;;;6.28;1.65;;;;;;;16.06;80.47;99514.03;5206924;28;20031;-76
2023/03/23 11:13:31;;;;;;;4.50;0.90;;;;;;;15.92;79.53;99514.25;5208643;28;20062;-72
2023/03/23 11:16:01;;;;;;;2.88;0.88;;;;;;;15.92;80.65;99508.97;5186670;28;20300;-72
2023/03/23 11:18:42;;;;;;;3.10;1.05;;;;;;;15.87;80.37;99516.34;5186569;28;20040;-75
2023/03/23 11:21:14;;;;;;;5.85;1.00;;;;;;;15.84;79.82;99529.75;5205203;28;20032;-73
2023/03/23 11:23:51;;;;;;;2.28;0.80;;;;;;;15.86;79.04;99512.03;5190253;28;20025;-73
2023/03/23 11:26:31;;;;;;;3.42;0.80;;;;;;;16.01;77.63;99520.63;5203977;28;20056;-76
2023/03/23 11:29:18;;;;;;;3.00;0.85;;;;;;;16.17;78.11;99515.88;5208505;28;20033;-73
2023/03/23 11:32:00;;;;;;;3.58;0.95;;;;;;;16.23;76.80;99505.69;5189391;28;20040;-73
2023/03/23 11:34:35;;;;;;;6.63;1.25;;;;;;;16.18;75.65;99507.03;5205320;28;20395;-73
2023/03/23 11:37:09;;;;;;;5.65;1.25;;;;;;;16.52;76.46;99517.56;5182607;28;20029;-73
2023/03/23 11:39:58;;;;;;;2.78;0.93;;;;;;;16.37;75.85;99517.91;5207143;28;20033;-74
2023/03/23 11:42:57;;;;;;;4.35;1.10;;;;;;;16.34;76.81;99503.09;5206102;28;20029;-74
2023/03/23 11:45:40;;;;;;;4.22;1.20;;;;;;;16.48;76.83;99510.84;5201269;28;20430;-74
2023/03/23 11:48:21;;;;;;;5.97;1.10;;;;;;;16.93;80.10;99502.84;5202273;28;20033;-75
2023/03/23 11:50:57;;;;;;;4.07;0.90;;;;;;;17.05;77.79;99501.88;5204903;28;20027;-74
2023/03/23 11:53:58;;;;;;;4.82;1.10;;;;;;;17.10;76.96;99501.50;5185806;28;20029;-75
2023/03/23 11:56:42;;;;;;;2.67;1.00;;;;;;;16.96;75.65;99499.13;5187961;28;20053;-73
2023/03/23 11:59:16;;;;;;;4.53;0.90;;;;;;;16.96;76.09;99505.25;5202906;28;20024;-75
2023/03/23 12:01:58;;;;;;;2.03;0.98;;;;;;;16.99;77.28;99507.63;5205062;28;20033;-74
2023/03/23 12:04:53;;;;;;;4.32;0.90;;;;;;;17.04;76.99;99515.19;5199856;28;20044;-75